KTPL/TPL METAR and TAF weather

Enter ICAO airport designator
Station Type Date Time Source
KTPL METAR 2021/09/27 06:51 UTC NOAA

KTPL 270651Z AUTO 17008KT 10SM CLR 21/15 A3003 RMK AO2 SLP159 T02060150


Station Type Date Time Source
KTPL Decoded METAR 2021/09/27 06:51 UTC NOAA

Temple, Draughon-Miller Central Texas Regional Airport, TX, United States (KTPL) 31-09N 097-24W
Sep 27, 2021 - 02:51 AM EDT / 2021.09.27 0651 UTC
Wind: from the S (170 degrees) at 9 MPH (8 KT):0
Visibility: 10 mile(s):0
Sky conditions: clear
Temperature: 69.1 F (20.6 C)
Dew Point: 59.0 F (15.0 C)
Relative Humidity: 70%
Pressure (altimeter): 30.03 in. Hg (1016 hPa)
ob: KTPL 270651Z AUTO 17008KT 10SM CLR 21/15 A3003 RMK AO2 SLP159 T02060150
cycle: 7

Station Type Date Time Source
KTPL TAF UTC NOAA

Error!

Example: see airport list